Bei Facebook empfehlenBei Twitter postenGoogle plusPinterest

Das Wetter im Erzgebirge am 10.08.2016

Wetter und Klima am 10.08.2016 Holzhau im Erzgebirge (630m ü.NN)
Letzte gemessene Temperatur und Uhrzeit der Messung23:45:00 Uhr4.90 °C
Temperatur (Maximum / Höchstwert) und Uhrzeit der Messung16:15:00 Uhr14.30 °C
Temperatur (Minimum / Tiefstwert) und Uhrzeit der Messung23:15:004.50 °C
Errechneter Absolutwert der Temperaturschwankungen zwischen Tmin und Tmax des Tages9.80 K
Errechnete Tagesmitteltemperatur9.71042 °C
Gesamt - Niederschlag des Tages (in flüssiger Form)1.04 Liter / m²
Luftdruck (Maximum / Höchstwert) und Zeitpunkt der Messung23:45:00 Uhr1017.00 hPa
Luftdruck (Minimum / Tiefstwert) und Zeitpunkt der Messung16:15:00 Uhr1015.00 hPa
Errechneter Absolutwert der Luftdruckschwankungen des Tages2.00 hPa
Höchste gemessene Windgeschwindigkeit und Uhrzeit der Messung23:45:00 Uhr0.00 km/h
Errechnete Windhäufigkeit in Relation zu den Messwerten des Tages0.00000 %
Niedrigste Windkühle (Windchill) und Zeitpunkt der Messung23:15:00 Uhr4.50 °C
Taupunkt (Maximum / Höchstwert) und Uhrzeit der Messung15:00:00 Uhr11.30 °C
Taupunkt (Minimum / Tiefstwert) und Uhrzeit der Messung23:15:002.70 °C
Anzahl der automatisch eingelesenen Messwerte 96

Detaillierte Wetter- und Klima- Messwerte für den 10.08.2016 in Holzhau im Erzgebirge (630m ü.NN)
ZeitTemperaturLuftdruckRel. LuftfeuchteWindWindrichtungWindchillTaupunktNiederschlag l/m²
23:45:004.90 °C1017.00 hPa90.00 %3.40 °C1.04
23:30:004.60 °C1016.90 hPa89.00 %2.90 °C1.04
23:15:004.50 °C1017.00 hPa88.00 %2.70 °C1.04
23:00:004.80 °C1016.70 hPa88.00 %3.00 °C1.04
22:45:005.20 °C1016.70 hPa88.00 %3.40 °C1.04
22:30:005.40 °C1016.80 hPa87.00 %3.40 °C1.04
22:15:005.80 °C1016.50 hPa87.00 %3.80 °C1.04
22:00:006.10 °C1016.60 hPa87.00 %4.10 °C1.04
21:45:006.70 °C1016.60 hPa86.00 %4.50 °C1.04
21:30:007.20 °C1016.60 hPa86.00 %5.00 °C1.04
21:15:007.60 °C1016.50 hPa86.00 %5.40 °C1.04
21:00:008.20 °C1016.30 hPa85.00 %5.80 °C1.04
20:45:008.50 °C1016.20 hPa84.00 %6.00 °C1.04
20:30:008.80 °C1016.30 hPa84.00 %6.20 °C1.04
20:15:009.20 °C1016.10 hPa83.00 %6.50 °C1.04
20:00:009.80 °C1015.90 hPa82.00 %6.90 °C1.04
19:45:0010.60 °C1015.70 hPa81.00 %7.50 °C1.04
19:30:0011.00 °C1016.00 hPa81.00 %7.90 °C1.04
19:15:0011.30 °C1016.00 hPa80.00 %8.00 °C1.04
19:00:0011.50 °C1015.90 hPa79.00 %8.00 °C1.04
18:45:0011.60 °C1015.90 hPa80.00 %8.30 °C1.04
18:30:0011.80 °C1015.90 hPa80.00 %8.50 °C1.04
18:15:0011.80 °C1015.70 hPa82.00 %8.80 °C1.04
18:00:0010.80 °C1015.50 hPa83.00 %8.00 °C1.04
17:45:0010.30 °C1015.70 hPa81.00 %7.20 °C1.04
17:30:0010.80 °C1015.80 hPa79.00 %7.30 °C1.04
17:15:0011.80 °C1015.50 hPa76.00 %7.70 °C1.04
17:00:0013.10 °C1015.30 hPa74.00 %8.60 °C1.04
16:45:0014.20 °C1015.20 hPa73.00 %9.40 °C1.04
16:30:0014.20 °C1015.10 hPa74.00 %9.60 °C1.04
16:15:0014.30 °C1015.00 hPa76.00 %10.10 °C1.04
16:00:0013.80 °C1015.10 hPa78.00 %10.00 °C1.04
15:45:0013.90 °C1015.10 hPa79.00 %10.30 °C1.04
15:30:0013.80 °C1015.00 hPa80.00 %10.40 °C1.04
15:15:0013.60 °C1015.10 hPa82.00 %10.60 °C1.04
15:00:0013.60 °C1015.00 hPa86.00 %11.30 °C1.04
14:45:0012.60 °C1015.10 hPa89.00 %10.80 °C1.04
14:30:0010.80 °C1015.10 hPa90.00 %9.20 °C1.04
14:15:009.50 °C1015.30 hPa90.00 %7.90 °C1.04
14:00:008.90 °C1015.40 hPa89.00 %7.20 °C1.04
13:45:008.40 °C1015.70 hPa89.00 %6.70 °C0.52
13:30:008.20 °C1015.70 hPa89.00 %6.50 °C0.52
13:15:008.20 °C1015.80 hPa89.00 %6.50 °C0.52
13:00:008.20 °C1015.80 hPa88.00 %6.30 °C0.52
12:45:008.30 °C1015.80 hPa88.00 %6.40 °C0.52
12:30:008.10 °C1015.80 hPa87.00 %6.10 °C0.52
12:15:008.10 °C1016.00 hPa86.00 %5.90 °C0.52
12:00:008.70 °C1016.00 hPa85.00 %6.30 °C 
11:45:009.80 °C1015.70 hPa85.00 %7.40 °C 
11:30:0010.50 °C1015.40 hPa84.00 %7.90 °C 
11:15:0011.40 °C1015.20 hPa83.00 %8.60 °C 
11:00:0012.40 °C1015.50 hPa82.00 %9.40 °C 
10:45:0013.00 °C1015.40 hPa84.00 %10.40 °C 
10:30:0013.20 °C1015.30 hPa86.00 %10.90 °C 
10:15:0012.90 °C1015.50 hPa88.00 %11.00 °C 
10:00:0011.90 °C1015.20 hPa89.00 %10.10 °C 
09:45:0011.60 °C1015.20 hPa90.00 %10.00 °C 
09:30:0011.60 °C1015.40 hPa91.00 %10.20 °C 
09:15:0011.40 °C1015.50 hPa91.00 %10.00 °C 
09:00:0011.30 °C1015.40 hPa92.00 %10.00 °C 
08:45:0010.80 °C1015.50 hPa93.00 %9.70 °C 
08:30:0010.30 °C1015.80 hPa93.00 %9.20 °C 
08:15:009.40 °C1015.50 hPa93.00 %8.30 °C 
08:00:009.10 °C1015.60 hPa93.00 %8.00 °C 
07:45:008.90 °C1015.40 hPa93.00 %7.80 °C 
07:30:008.80 °C1015.50 hPa93.00 %7.70 °C 
07:15:008.50 °C1015.70 hPa92.00 %7.30 °C 
07:00:008.40 °C1015.60 hPa92.00 %7.20 °C 
06:45:008.20 °C1015.50 hPa92.00 %7.00 °C 
06:30:008.20 °C1015.50 hPa92.00 %7.00 °C 
06:15:008.10 °C1015.60 hPa92.00 %6.90 °C 
06:00:008.10 °C1015.30 hPa92.00 %6.90 °C 
05:45:008.10 °C1015.20 hPa92.00 %6.90 °C 
05:30:008.10 °C1015.50 hPa91.00 %6.70 °C 
05:15:008.20 °C1015.30 hPa91.00 %6.80 °C 
05:00:008.40 °C1015.40 hPa91.00 %7.00 °C 
04:45:008.60 °C1015.30 hPa91.00 %7.20 °C 
04:30:008.80 °C1015.30 hPa91.00 %7.40 °C 
04:15:008.80 °C1015.60 hPa91.00 %7.40 °C 
04:00:008.80 °C1015.70 hPa91.00 %7.40 °C 
03:45:008.80 °C1015.90 hPa91.00 %7.40 °C 
03:30:008.80 °C1015.80 hPa91.00 %7.40 °C 
03:15:008.80 °C1016.00 hPa91.00 %7.40 °C 
03:00:008.80 °C1016.10 hPa91.00 %7.40 °C 
02:45:008.70 °C1016.00 hPa90.00 %7.20 °C 
02:30:008.80 °C1016.10 hPa90.00 %7.30 °C 
02:15:009.10 °C1016.20 hPa90.00 %7.50 °C 
02:00:009.30 °C1016.20 hPa90.00 %7.70 °C 
01:45:009.50 °C1016.10 hPa90.00 %7.90 °C 
01:30:009.80 °C1016.10 hPa89.00 %8.10 °C 
01:15:0010.00 °C1016.20 hPa89.00 %8.30 °C 
01:00:0010.30 °C1016.40 hPa89.00 %8.60 °C 
00:45:0010.50 °C1016.50 hPa89.00 %8.80 °C 
00:30:0010.60 °C1016.40 hPa88.00 %8.70 °C 
00:15:0010.80 °C1016.70 hPa88.00 %8.90 °C 
00:00:0010.90 °C1016.70 hPa88.00 %9.00 °C 

Permanenter Link zu dieser Seite: Wetter im Erzgebirge am 10.08.2016
Performance-Info: Die Erstellung der Seite / Statistik(en) / Tabelle(n) erforderte 5 Datenbankserver-Abfrage(n) und dauerte 101 Millisekunden. (Dieser Messwert ist von der Gesamt-Auslastung des Servers abhängig.)
Erzgebirge - Wetter | Erzgebirge - Wetter (Mobilgeräte) | Komplette Klimadatenbank